sensor_id;sensor_type;location;lat;lon;timestamp;noise_LAeq;noise_LA_min;noise_LA_max;noise_LA01;noise_LA95
58251;Laerm;51449;51.676;5.812;2023-11-21T00:00:53;49.30;47.51;60.13;;
58251;Laerm;51449;51.676;5.812;2023-11-21T00:03:15;49.23;47.57;59.01;;
58251;Laerm;51449;51.676;5.812;2023-11-21T00:05:37;49.18;47.45;57.15;;
58251;Laerm;51449;51.676;5.812;2023-11-21T00:07:59;49.23;47.51;52.66;;
58251;Laerm;51449;51.676;5.812;2023-11-21T00:10:21;49.32;47.36;54.07;;
58251;Laerm;51449;51.676;5.812;2023-11-21T00:12:43;49.47;47.45;68.37;;
58251;Laerm;51449;51.676;5.812;2023-11-21T00:15:05;49.20;47.59;59.84;;
58251;Laerm;51449;51.676;5.812;2023-11-21T00:17:27;49.16;47.37;53.83;;
58251;Laerm;51449;51.676;5.812;2023-11-21T00:19:50;49.15;47.47;52.82;;
58251;Laerm;51449;51.676;5.812;2023-11-21T00:22:13;49.21;47.54;61.18;;
58251;Laerm;51449;51.676;5.812;2023-11-21T00:24:35;49.20;47.55;59.66;;
58251;Laerm;51449;51.676;5.812;2023-11-21T00:26:57;49.32;47.60;67.16;;
58251;Laerm;51449;51.676;5.812;2023-11-21T00:29:19;49.29;47.18;63.48;;
58251;Laerm;51449;51.676;5.812;2023-11-21T00:31:41;49.66;47.15;68.65;;
58251;Laerm;51449;51.676;5.812;2023-11-21T00:34:03;49.83;47.54;69.13;;
58251;Laerm;51449;51.676;5.812;2023-11-21T00:36:28;50.15;47.33;67.25;;
58251;Laerm;51449;51.676;5.812;2023-11-21T00:38:50;50.43;47.53;68.78;;
58251;Laerm;51449;51.676;5.812;2023-11-21T00:41:12;51.11;47.57;70.10;;
58251;Laerm;51449;51.676;5.812;2023-11-21T00:43:33;51.15;47.79;69.74;;
58251;Laerm;51449;51.676;5.812;2023-11-21T00:45:55;51.75;47.72;69.02;;
58251;Laerm;51449;51.676;5.812;2023-11-21T00:48:17;51.43;47.75;70.47;;
58251;Laerm;51449;51.676;5.812;2023-11-21T00:50:42;50.89;47.57;68.83;;
58251;Laerm;51449;51.676;5.812;2023-11-21T00:53:04;50.60;47.62;67.38;;
58251;Laerm;51449;51.676;5.812;2023-11-21T00:55:25;50.21;47.22;68.85;;
58251;Laerm;51449;51.676;5.812;2023-11-21T00:57:48;50.53;47.54;66.50;;
58251;Laerm;51449;51.676;5.812;2023-11-21T01:00:10;51.09;47.71;67.79;;
58251;Laerm;51449;51.676;5.812;2023-11-21T01:02:37;52.08;47.60;69.31;;
58251;Laerm;51449;51.676;5.812;2023-11-21T01:04:59;52.03;47.64;70.80;;
58251;Laerm;51449;51.676;5.812;2023-11-21T01:07:21;50.88;47.59;68.40;;
58251;Laerm;51449;51.676;5.812;2023-11-21T01:09:44;49.87;47.63;66.33;;
58251;Laerm;51449;51.676;5.812;2023-11-21T01:12:07;49.44;47.63;59.09;;
58251;Laerm;51449;51.676;5.812;2023-11-21T01:14:29;49.43;47.51;64.63;;
58251;Laerm;51449;51.676;5.812;2023-11-21T01:16:51;49.69;47.40;69.74;;
58251;Laerm;51449;51.676;5.812;2023-11-21T01:19:14;49.37;47.62;56.71;;
58251;Laerm;51449;51.676;5.812;2023-11-21T01:21:36;49.42;47.48;66.44;;
58251;Laerm;51449;51.676;5.812;2023-11-21T01:23:58;49.54;47.56;69.65;;
58251;Laerm;51449;51.676;5.812;2023-11-21T01:26:21;49.47;47.53;66.27;;
58251;Laerm;51449;51.676;5.812;2023-11-21T01:28:43;49.42;47.48;60.68;;
58251;Laerm;51449;51.676;5.812;2023-11-21T01:31:05;49.41;47.62;63.44;;
58251;Laerm;51449;51.676;5.812;2023-11-21T01:33:28;49.42;47.52;52.58;;
58251;Laerm;51449;51.676;5.812;2023-11-21T01:35:51;49.39;47.60;54.68;;
58251;Laerm;51449;51.676;5.812;2023-11-21T01:38:16;49.47;47.41;69.59;;
58251;Laerm;51449;51.676;5.812;2023-11-21T01:40:39;49.42;47.24;68.07;;
58251;Laerm;51449;51.676;5.812;2023-11-21T01:43:01;49.28;47.48;53.41;;
58251;Laerm;51449;51.676;5.812;2023-11-21T01:45:26;49.39;47.49;66.36;;
58251;Laerm;51449;51.676;5.812;2023-11-21T01:47:48;49.40;47.58;66.33;;
58251;Laerm;51449;51.676;5.812;2023-11-21T01:50:15;49.37;47.46;66.55;;
58251;Laerm;51449;51.676;5.812;2023-11-21T01:52:39;49.33;47.34;53.17;;
58251;Laerm;51449;51.676;5.812;2023-11-21T01:55:04;49.46;47.76;67.68;;
58251;Laerm;51449;51.676;5.812;2023-11-21T01:57:28;49.42;47.63;60.33;;
58251;Laerm;51449;51.676;5.812;2023-11-21T01:59:54;49.40;47.68;55.05;;
58251;Laerm;51449;51.676;5.812;2023-11-21T02:02:16;49.47;47.59;65.45;;
58251;Laerm;51449;51.676;5.812;2023-11-21T02:04:39;49.40;47.55;51.78;;
58251;Laerm;51449;51.676;5.812;2023-11-21T02:07:03;49.34;47.38;55.18;;
58251;Laerm;51449;51.676;5.812;2023-11-21T02:09:29;49.32;47.36;54.80;;
58251;Laerm;51449;51.676;5.812;2023-11-21T02:11:54;49.38;47.40;60.22;;
58251;Laerm;51449;51.676;5.812;2023-11-21T02:14:20;49.39;47.51;61.43;;
58251;Laerm;51449;51.676;5.812;2023-11-21T02:16:43;49.32;47.52;53.59;;
58251;Laerm;51449;51.676;5.812;2023-11-21T02:19:13;49.34;47.43;55.15;;
58251;Laerm;51449;51.676;5.812;2023-11-21T02:21:40;49.39;47.55;54.27;;
58251;Laerm;51449;51.676;5.812;2023-11-21T02:24:02;49.36;47.10;53.55;;
58251;Laerm;51449;51.676;5.812;2023-11-21T02:26:24;49.43;47.62;58.29;;
58251;Laerm;51449;51.676;5.812;2023-11-21T02:28:47;49.42;47.54;54.18;;
58251;Laerm;51449;51.676;5.812;2023-11-21T02:31:09;49.40;47.67;61.38;;
58251;Laerm;51449;51.676;5.812;2023-11-21T02:33:31;49.41;47.48;53.35;;
58251;Laerm;51449;51.676;5.812;2023-11-21T02:35:55;49.41;47.21;53.72;;
58251;Laerm;51449;51.676;5.812;2023-11-21T02:38:17;49.43;47.58;54.17;;
58251;Laerm;51449;51.676;5.812;2023-11-21T02:40:40;49.41;47.51;59.50;;
58251;Laerm;51449;51.676;5.812;2023-11-21T02:43:02;49.48;47.46;66.53;;
58251;Laerm;51449;51.676;5.812;2023-11-21T02:45:24;49.40;47.33;59.50;;
58251;Laerm;51449;51.676;5.812;2023-11-21T02:47:47;49.40;47.44;59.98;;
58251;Laerm;51449;51.676;5.812;2023-11-21T02:50:09;49.30;47.54;53.57;;
58251;Laerm;51449;51.676;5.812;2023-11-21T02:52:31;49.33;47.42;53.88;;
58251;Laerm;51449;51.676;5.812;2023-11-21T02:54:54;49.33;47.54;61.10;;
58251;Laerm;51449;51.676;5.812;2023-11-21T02:57:16;49.21;47.22;61.35;;
58251;Laerm;51449;51.676;5.812;2023-11-21T02:59:39;49.29;47.38;55.50;;
58251;Laerm;51449;51.676;5.812;2023-11-21T03:02:01;49.30;47.51;59.42;;
58251;Laerm;51449;51.676;5.812;2023-11-21T03:04:23;49.29;47.42;53.53;;
58251;Laerm;51449;51.676;5.812;2023-11-21T03:06:45;49.34;47.49;59.95;;
58251;Laerm;51449;51.676;5.812;2023-11-21T03:09:07;49.31;47.52;60.48;;
58251;Laerm;51449;51.676;5.812;2023-11-21T03:11:29;49.26;47.33;59.66;;
58251;Laerm;51449;51.676;5.812;2023-11-21T03:13:51;49.29;47.49;59.97;;
58251;Laerm;51449;51.676;5.812;2023-11-21T03:16:14;49.26;47.48;59.81;;
58251;Laerm;51449;51.676;5.812;2023-11-21T03:18:39;49.30;47.55;53.69;;
58251;Laerm;51449;51.676;5.812;2023-11-21T03:21:01;49.41;47.41;67.67;;
58251;Laerm;51449;51.676;5.812;2023-11-21T03:23:24;49.36;47.36;68.31;;
58251;Laerm;51449;51.676;5.812;2023-11-21T03:25:46;49.29;47.55;60.53;;
58251;Laerm;51449;51.676;5.812;2023-11-21T03:28:09;49.45;47.50;67.53;;
58251;Laerm;51449;51.676;5.812;2023-11-21T03:30:31;49.33;47.51;61.72;;
58251;Laerm;51449;51.676;5.812;2023-11-21T03:32:52;49.32;47.58;53.48;;
58251;Laerm;51449;51.676;5.812;2023-11-21T03:35:15;49.33;47.25;53.34;;
58251;Laerm;51449;51.676;5.812;2023-11-21T03:37:37;49.36;47.43;60.13;;
58251;Laerm;51449;51.676;5.812;2023-11-21T03:40:05;49.35;47.31;53.88;;
58251;Laerm;51449;51.676;5.812;2023-11-21T03:42:27;49.34;47.35;53.48;;
58251;Laerm;51449;51.676;5.812;2023-11-21T03:44:49;49.37;47.58;66.30;;
58251;Laerm;51449;51.676;5.812;2023-11-21T03:47:10;49.33;47.43;53.73;;
58251;Laerm;51449;51.676;5.812;2023-11-21T03:49:33;49.34;47.56;53.82;;
58251;Laerm;51449;51.676;5.812;2023-11-21T03:51:56;49.36;47.54;59.83;;
58251;Laerm;51449;51.676;5.812;2023-11-21T03:54:18;49.37;47.36;60.32;;
58251;Laerm;51449;51.676;5.812;2023-11-21T03:56:40;49.38;47.48;67.54;;
58251;Laerm;51449;51.676;5.812;2023-11-21T03:59:02;49.38;47.30;66.46;;
58251;Laerm;51449;51.676;5.812;2023-11-21T04:01:25;49.33;47.43;53.71;;
58251;Laerm;51449;51.676;5.812;2023-11-21T04:03:49;49.32;47.41;59.88;;
58251;Laerm;51449;51.676;5.812;2023-11-21T04:06:13;49.27;47.53;54.73;;
58251;Laerm;51449;51.676;5.812;2023-11-21T04:08:35;49.27;47.48;54.20;;
58251;Laerm;51449;51.676;5.812;2023-11-21T04:10:58;49.27;47.38;54.90;;
58251;Laerm;51449;51.676;5.812;2023-11-21T04:13:20;49.40;47.53;70.12;;
58251;Laerm;51449;51.676;5.812;2023-11-21T04:15:42;49.29;47.47;54.56;;
58251;Laerm;51449;51.676;5.812;2023-11-21T04:18:04;49.28;47.29;54.90;;
58251;Laerm;51449;51.676;5.812;2023-11-21T04:20:26;49.16;47.08;52.49;;
58251;Laerm;51449;51.676;5.812;2023-11-21T04:22:48;49.21;47.31;53.53;;
58251;Laerm;51449;51.676;5.812;2023-11-21T04:25:13;49.06;46.85;55.17;;
58251;Laerm;51449;51.676;5.812;2023-11-21T04:27:39;49.11;47.17;57.27;;
58251;Laerm;51449;51.676;5.812;2023-11-21T04:30:01;49.25;47.38;53.47;;
58251;Laerm;51449;51.676;5.812;2023-11-21T04:32:22;49.32;47.54;54.00;;
58251;Laerm;51449;51.676;5.812;2023-11-21T04:34:45;49.39;47.61;55.49;;
58251;Laerm;51449;51.676;5.812;2023-11-21T04:37:07;49.43;47.77;54.57;;
58251;Laerm;51449;51.676;5.812;2023-11-21T04:39:29;49.45;47.58;55.18;;
58251;Laerm;51449;51.676;5.812;2023-11-21T04:41:52;49.51;47.57;65.12;;
58251;Laerm;51449;51.676;5.812;2023-11-21T04:44:14;49.47;47.51;67.65;;
58251;Laerm;51449;51.676;5.812;2023-11-21T04:46:38;49.48;47.47;56.31;;
58251;Laerm;51449;51.676;5.812;2023-11-21T04:49:00;49.58;47.30;67.32;;
58251;Laerm;51449;51.676;5.812;2023-11-21T04:51:22;49.46;47.57;54.49;;
58251;Laerm;51449;51.676;5.812;2023-11-21T04:53:44;49.50;47.54;55.38;;
58251;Laerm;51449;51.676;5.812;2023-11-21T04:56:06;49.47;47.44;54.47;;
58251;Laerm;51449;51.676;5.812;2023-11-21T04:58:28;49.46;47.39;53.92;;
58251;Laerm;51449;51.676;5.812;2023-11-21T05:00:50;49.45;47.60;56.16;;
58251;Laerm;51449;51.676;5.812;2023-11-21T05:03:12;49.51;47.41;67.13;;
58251;Laerm;51449;51.676;5.812;2023-11-21T05:05:34;49.39;47.42;53.74;;
58251;Laerm;51449;51.676;5.812;2023-11-21T05:07:57;49.39;47.33;53.70;;
58251;Laerm;51449;51.676;5.812;2023-11-21T05:10:19;49.40;47.34;55.14;;
58251;Laerm;51449;51.676;5.812;2023-11-21T05:12:42;49.40;47.40;56.88;;
58251;Laerm;51449;51.676;5.812;2023-11-21T05:15:06;49.39;47.43;53.46;;
58251;Laerm;51449;51.676;5.812;2023-11-21T05:17:37;49.43;47.58;60.51;;
58251;Laerm;51449;51.676;5.812;2023-11-21T05:20:01;49.42;47.38;54.59;;
58251;Laerm;51449;51.676;5.812;2023-11-21T05:22:25;49.38;47.25;68.09;;
58251;Laerm;51449;51.676;5.812;2023-11-21T05:24:47;49.43;47.41;59.95;;
58251;Laerm;51449;51.676;5.812;2023-11-21T05:27:09;49.42;47.43;56.07;;
58251;Laerm;51449;51.676;5.812;2023-11-21T05:29:31;49.42;47.55;54.58;;
58251;Laerm;51449;51.676;5.812;2023-11-21T05:31:53;49.47;47.65;55.71;;
58251;Laerm;51449;51.676;5.812;2023-11-21T05:34:15;49.41;47.43;54.46;;
58251;Laerm;51449;51.676;5.812;2023-11-21T05:36:39;49.45;47.43;55.99;;
58251;Laerm;51449;51.676;5.812;2023-11-21T05:39:01;49.46;47.62;56.15;;
58251;Laerm;51449;51.676;5.812;2023-11-21T05:41:22;49.50;47.57;55.69;;
58251;Laerm;51449;51.676;5.812;2023-11-21T05:43:45;49.53;47.67;56.49;;
58251;Laerm;51449;51.676;5.812;2023-11-21T05:46:06;49.59;47.61;65.96;;
58251;Laerm;51449;51.676;5.812;2023-11-21T05:48:29;49.54;47.77;59.59;;
58251;Laerm;51449;51.676;5.812;2023-11-21T05:50:52;49.49;47.49;54.72;;
58251;Laerm;51449;51.676;5.812;2023-11-21T05:53:13;49.51;47.46;59.66;;
58251;Laerm;51449;51.676;5.812;2023-11-21T05:55:37;49.51;47.58;56.43;;
58251;Laerm;51449;51.676;5.812;2023-11-21T05:58:01;49.60;47.41;68.61;;
58251;Laerm;51449;51.676;5.812;2023-11-21T06:00:23;49.61;47.44;69.08;;
58251;Laerm;51449;51.676;5.812;2023-11-21T06:02:49;49.50;47.32;54.58;;
58251;Laerm;51449;51.676;5.812;2023-11-21T06:05:19;49.57;47.29;67.38;;
58251;Laerm;51449;51.676;5.812;2023-11-21T06:07:41;49.51;47.57;55.86;;
58251;Laerm;51449;51.676;5.812;2023-11-21T06:10:04;49.52;47.50;55.20;;
58251;Laerm;51449;51.676;5.812;2023-11-21T06:12:34;49.62;47.58;69.22;;
58251;Laerm;51449;51.676;5.812;2023-11-21T06:14:57;49.50;47.57;59.60;;
58251;Laerm;51449;51.676;5.812;2023-11-21T06:17:19;49.51;47.71;55.53;;
58251;Laerm;51449;51.676;5.812;2023-11-21T06:19:41;49.52;47.42;65.24;;
58251;Laerm;51449;51.676;5.812;2023-11-21T06:22:03;49.51;47.19;54.82;;
58251;Laerm;51449;51.676;5.812;2023-11-21T06:24:25;49.49;47.55;59.38;;
58251;Laerm;51449;51.676;5.812;2023-11-21T06:26:47;49.50;47.58;54.70;;
58251;Laerm;51449;51.676;5.812;2023-11-21T06:29:10;49.50;47.70;54.17;;
58251;Laerm;51449;51.676;5.812;2023-11-21T06:31:32;49.58;47.47;67.58;;
58251;Laerm;51449;51.676;5.812;2023-11-21T06:33:54;49.53;47.36;58.95;;
58251;Laerm;51449;51.676;5.812;2023-11-21T06:36:16;49.51;47.54;59.42;;
58251;Laerm;51449;51.676;5.812;2023-11-21T06:38:38;49.48;47.46;56.89;;
58251;Laerm;51449;51.676;5.812;2023-11-21T06:41:00;49.54;47.50;66.03;;
58251;Laerm;51449;51.676;5.812;2023-11-21T06:43:26;49.46;47.32;55.71;;
58251;Laerm;51449;51.676;5.812;2023-11-21T06:45:48;49.47;47.27;69.67;;
58251;Laerm;51449;51.676;5.812;2023-11-21T06:48:10;49.54;47.59;66.60;;
58251;Laerm;51449;51.676;5.812;2023-11-21T06:50:32;49.51;47.43;58.47;;
58251;Laerm;51449;51.676;5.812;2023-11-21T06:52:54;49.48;47.45;56.43;;
58251;Laerm;51449;51.676;5.812;2023-11-21T06:55:16;49.55;47.52;67.66;;
58251;Laerm;51449;51.676;5.812;2023-11-21T06:57:38;49.48;47.37;55.45;;
58251;Laerm;51449;51.676;5.812;2023-11-21T07:00:00;49.50;47.53;56.46;;
58251;Laerm;51449;51.676;5.812;2023-11-21T07:02:22;49.51;47.68;53.91;;
58251;Laerm;51449;51.676;5.812;2023-11-21T07:04:47;49.53;47.54;56.36;;
58251;Laerm;51449;51.676;5.812;2023-11-21T07:07:09;49.58;47.52;67.52;;
58251;Laerm;51449;51.676;5.812;2023-11-21T07:09:31;49.67;47.53;55.40;;
58251;Laerm;51449;51.676;5.812;2023-11-21T07:11:52;49.62;47.55;60.55;;
58251;Laerm;51449;51.676;5.812;2023-11-21T07:14:17;49.73;47.71;67.42;;
58251;Laerm;51449;51.676;5.812;2023-11-21T07:16:41;49.66;47.68;56.77;;
58251;Laerm;51449;51.676;5.812;2023-11-21T07:19:06;49.66;47.35;53.77;;
58251;Laerm;51449;51.676;5.812;2023-11-21T07:21:28;49.66;47.63;56.52;;
58251;Laerm;51449;51.676;5.812;2023-11-21T07:23:50;49.69;47.59;52.89;;
58251;Laerm;51449;51.676;5.812;2023-11-21T07:26:12;49.71;47.68;56.57;;
58251;Laerm;51449;51.676;5.812;2023-11-21T07:28:34;49.70;47.53;54.93;;
58251;Laerm;51449;51.676;5.812;2023-11-21T07:30:56;49.70;47.64;59.61;;
58251;Laerm;51449;51.676;5.812;2023-11-21T07:33:18;49.75;47.59;56.47;;
58251;Laerm;51449;51.676;5.812;2023-11-21T07:35:40;49.84;47.71;54.03;;
58251;Laerm;51449;51.676;5.812;2023-11-21T07:38:02;49.82;47.37;68.27;;
58251;Laerm;51449;51.676;5.812;2023-11-21T07:40:23;49.77;47.65;61.37;;
58251;Laerm;51449;51.676;5.812;2023-11-21T07:42:45;49.73;47.60;57.07;;
58251;Laerm;51449;51.676;5.812;2023-11-21T07:45:08;49.71;47.62;53.32;;
58251;Laerm;51449;51.676;5.812;2023-11-21T07:47:30;49.71;47.67;56.36;;
58251;Laerm;51449;51.676;5.812;2023-11-21T07:49:56;49.69;47.52;56.21;;
58251;Laerm;51449;51.676;5.812;2023-11-21T07:52:18;49.75;47.47;55.15;;
58251;Laerm;51449;51.676;5.812;2023-11-21T07:54:40;49.79;47.50;57.11;;
58251;Laerm;51449;51.676;5.812;2023-11-21T07:57:02;49.84;47.87;65.83;;
58251;Laerm;51449;51.676;5.812;2023-11-21T07:59:25;49.71;47.61;55.47;;
58251;Laerm;51449;51.676;5.812;2023-11-21T08:01:47;49.73;47.70;55.54;;
58251;Laerm;51449;51.676;5.812;2023-11-21T08:04:09;49.68;47.44;55.18;;
58251;Laerm;51449;51.676;5.812;2023-11-21T08:06:31;49.73;47.49;58.99;;
58251;Laerm;51449;51.676;5.812;2023-11-21T08:08:53;49.74;47.62;55.55;;
58251;Laerm;51449;51.676;5.812;2023-11-21T08:11:14;49.72;47.65;53.89;;
58251;Laerm;51449;51.676;5.812;2023-11-21T08:13:36;49.69;47.50;54.32;;
58251;Laerm;51449;51.676;5.812;2023-11-21T08:15:58;49.68;47.59;54.14;;
58251;Laerm;51449;51.676;5.812;2023-11-21T08:18:24;49.69;47.61;56.15;;
58251;Laerm;51449;51.676;5.812;2023-11-21T08:20:46;49.74;47.59;56.00;;
58251;Laerm;51449;51.676;5.812;2023-11-21T08:23:11;49.73;47.60;55.81;;
58251;Laerm;51449;51.676;5.812;2023-11-21T08:25:33;49.80;47.60;56.00;;
58251;Laerm;51449;51.676;5.812;2023-11-21T08:27:56;49.75;47.54;56.27;;
58251;Laerm;51449;51.676;5.812;2023-11-21T08:30:18;49.70;47.62;54.00;;
58251;Laerm;51449;51.676;5.812;2023-11-21T08:32:41;49.68;47.47;55.39;;
58251;Laerm;51449;51.676;5.812;2023-11-21T08:35:04;49.66;47.48;55.74;;
58251;Laerm;51449;51.676;5.812;2023-11-21T08:37:28;49.58;47.37;54.33;;
58251;Laerm;51449;51.676;5.812;2023-11-21T08:39:51;49.58;47.68;65.73;;
58251;Laerm;51449;51.676;5.812;2023-11-21T08:42:14;49.49;47.40;55.50;;
58251;Laerm;51449;51.676;5.812;2023-11-21T08:44:36;49.45;47.56;55.38;;
58251;Laerm;51449;51.676;5.812;2023-11-21T08:46:58;49.45;47.45;56.04;;
58251;Laerm;51449;51.676;5.812;2023-11-21T08:49:20;49.44;47.46;53.65;;
58251;Laerm;51449;51.676;5.812;2023-11-21T08:51:44;49.45;47.50;54.05;;
58251;Laerm;51449;51.676;5.812;2023-11-21T08:54:06;49.48;47.54;55.29;;
58251;Laerm;51449;51.676;5.812;2023-11-21T08:56:29;49.52;47.36;55.97;;
58251;Laerm;51449;51.676;5.812;2023-11-21T08:58:51;49.59;47.49;56.24;;
58251;Laerm;51449;51.676;5.812;2023-11-21T09:01:14;49.67;47.59;59.58;;
58251;Laerm;51449;51.676;5.812;2023-11-21T09:03:36;49.70;47.41;56.56;;
58251;Laerm;51449;51.676;5.812;2023-11-21T09:05:58;49.83;47.38;69.93;;
58251;Laerm;51449;51.676;5.812;2023-11-21T09:08:20;49.74;47.53;54.83;;
58251;Laerm;51449;51.676;5.812;2023-11-21T09:10:43;49.70;47.36;56.14;;
58251;Laerm;51449;51.676;5.812;2023-11-21T09:13:08;49.70;47.37;55.78;;
58251;Laerm;51449;51.676;5.812;2023-11-21T09:15:31;49.64;47.38;56.57;;
58251;Laerm;51449;51.676;5.812;2023-11-21T09:17:53;49.64;47.40;55.99;;
58251;Laerm;51449;51.676;5.812;2023-11-21T09:20:15;49.61;47.26;55.77;;
58251;Laerm;51449;51.676;5.812;2023-11-21T09:22:37;49.57;47.37;55.51;;
58251;Laerm;51449;51.676;5.812;2023-11-21T09:24:59;49.50;47.56;55.35;;
58251;Laerm;51449;51.676;5.812;2023-11-21T09:27:21;49.54;47.45;59.76;;
58251;Laerm;51449;51.676;5.812;2023-11-21T09:29:43;49.54;47.52;54.02;;
58251;Laerm;51449;51.676;5.812;2023-11-21T09:32:06;49.66;47.56;66.46;;
58251;Laerm;51449;51.676;5.812;2023-11-21T09:34:29;49.63;47.40;54.35;;
58251;Laerm;51449;51.676;5.812;2023-11-21T09:36:52;49.57;47.51;55.54;;
58251;Laerm;51449;51.676;5.812;2023-11-21T09:39:14;49.51;47.65;63.89;;
58251;Laerm;51449;51.676;5.812;2023-11-21T09:41:45;49.52;47.53;55.62;;
58251;Laerm;51449;51.676;5.812;2023-11-21T09:44:13;49.56;47.59;56.90;;
58251;Laerm;51449;51.676;5.812;2023-11-21T09:46:35;49.45;47.56;56.51;;
58251;Laerm;51449;51.676;5.812;2023-11-21T09:49:02;49.47;47.44;55.95;;
58251;Laerm;51449;51.676;5.812;2023-11-21T09:51:29;49.45;47.37;61.87;;
58251;Laerm;51449;51.676;5.812;2023-11-21T09:53:56;49.40;47.62;53.82;;
58251;Laerm;51449;51.676;5.812;2023-11-21T09:56:21;49.40;47.54;55.56;;
58251;Laerm;51449;51.676;5.812;2023-11-21T09:58:45;49.41;47.45;59.36;;
58251;Laerm;51449;51.676;5.812;2023-11-21T10:01:09;49.35;47.38;55.64;;
58251;Laerm;51449;51.676;5.812;2023-11-21T10:03:31;49.36;47.38;55.96;;
58251;Laerm;51449;51.676;5.812;2023-11-21T10:05:53;49.34;47.23;61.63;;
58251;Laerm;51449;51.676;5.812;2023-11-21T10:08:15;49.29;47.43;55.66;;
58251;Laerm;51449;51.676;5.812;2023-11-21T10:10:43;49.29;47.47;55.54;;
58251;Laerm;51449;51.676;5.812;2023-11-21T10:13:13;49.31;47.49;55.47;;
58251;Laerm;51449;51.676;5.812;2023-11-21T10:15:41;49.37;47.51;55.90;;
58251;Laerm;51449;51.676;5.812;2023-11-21T10:18:07;49.42;47.48;55.34;;
58251;Laerm;51449;51.676;5.812;2023-11-21T10:20:33;49.49;47.39;57.33;;
58251;Laerm;51449;51.676;5.812;2023-11-21T10:22:55;49.56;47.56;56.41;;
58251;Laerm;51449;51.676;5.812;2023-11-21T10:25:18;49.66;47.43;53.33;;
58251;Laerm;51449;51.676;5.812;2023-11-21T10:27:42;49.78;47.68;68.85;;
58251;Laerm;51449;51.676;5.812;2023-11-21T10:30:09;49.73;47.52;57.63;;
58251;Laerm;51449;51.676;5.812;2023-11-21T10:32:36;49.77;47.67;57.06;;
58251;Laerm;51449;51.676;5.812;2023-11-21T10:35:01;49.71;47.50;56.66;;
58251;Laerm;51449;51.676;5.812;2023-11-21T10:37:28;49.66;47.55;54.90;;
58251;Laerm;51449;51.676;5.812;2023-11-21T10:39:50;49.61;47.25;56.31;;
58251;Laerm;51449;51.676;5.812;2023-11-21T10:42:12;49.62;47.50;55.79;;
58251;Laerm;51449;51.676;5.812;2023-11-21T10:44:34;49.64;47.11;68.91;;
58251;Laerm;51449;51.676;5.812;2023-11-21T10:46:56;49.52;47.26;56.00;;
58251;Laerm;51449;51.676;5.812;2023-11-21T10:49:24;49.29;47.07;55.67;;
58251;Laerm;51449;51.676;5.812;2023-11-21T10:51:47;49.40;47.22;56.07;;
58251;Laerm;51449;51.676;5.812;2023-11-21T10:54:10;49.21;47.28;54.28;;
58251;Laerm;51449;51.676;5.812;2023-11-21T10:56:36;49.21;47.28;56.11;;
58251;Laerm;51449;51.676;5.812;2023-11-21T10:59:02;49.26;47.16;56.16;;
58251;Laerm;51449;51.676;5.812;2023-11-21T11:01:28;49.29;47.21;54.07;;
58251;Laerm;51449;51.676;5.812;2023-11-21T11:03:52;49.58;47.52;54.66;;
58251;Laerm;51449;51.676;5.812;2023-11-21T11:06:16;49.64;47.27;56.87;;
58251;Laerm;51449;51.676;5.812;2023-11-21T11:08:40;49.75;47.76;56.94;;
58251;Laerm;51449;51.676;5.812;2023-11-21T11:11:02;49.88;47.38;57.71;;
58251;Laerm;51449;51.676;5.812;2023-11-21T11:13:25;49.81;47.51;57.43;;
58251;Laerm;51449;51.676;5.812;2023-11-21T11:15:48;49.76;47.54;56.94;;
58251;Laerm;51449;51.676;5.812;2023-11-21T11:18:11;49.61;47.44;55.68;;
58251;Laerm;51449;51.676;5.812;2023-11-21T11:20:37;49.46;47.16;55.05;;
58251;Laerm;51449;51.676;5.812;2023-11-21T11:23:52;49.31;47.12;56.87;;
58251;Laerm;51449;51.676;5.812;2023-11-21T11:26:54;49.52;47.71;57.38;;
58251;Laerm;51449;51.676;5.812;2023-11-21T11:32:34;49.45;47.24;56.12;;
58251;Laerm;51449;51.676;5.812;2023-11-21T11:35:08;49.39;47.70;55.96;;
58251;Laerm;51449;51.676;5.812;2023-11-21T11:37:33;49.39;47.49;55.89;;
58251;Laerm;51449;51.676;5.812;2023-11-21T11:39:55;49.49;47.58;55.54;;
58251;Laerm;51449;51.676;5.812;2023-11-21T11:42:17;49.45;47.47;55.01;;
58251;Laerm;51449;51.676;5.812;2023-11-21T11:47:30;49.54;47.67;67.24;;
58251;Laerm;51449;51.676;5.812;2023-11-21T11:50:12;49.34;47.33;61.70;;
58251;Laerm;51449;51.676;5.812;2023-11-21T11:52:49;49.24;47.25;53.21;;
58251;Laerm;51449;51.676;5.812;2023-11-21T11:55:16;49.31;47.61;57.51;;
58251;Laerm;51449;51.676;5.812;2023-11-21T11:57:42;49.38;47.41;67.35;;
58251;Laerm;51449;51.676;5.812;2023-11-21T12:00:19;49.40;47.30;60.03;;
58251;Laerm;51449;51.676;5.812;2023-11-21T12:02:52;49.37;47.68;57.17;;
58251;Laerm;51449;51.676;5.812;2023-11-21T12:05:17;49.44;47.64;65.08;;
58251;Laerm;51449;51.676;5.812;2023-11-21T12:07:53;49.51;47.72;64.16;;
58251;Laerm;51449;51.676;5.812;2023-11-21T12:10:18;49.56;47.22;58.60;;
58251;Laerm;51449;51.676;5.812;2023-11-21T12:12:49;49.63;47.75;52.75;;
58251;Laerm;51449;51.676;5.812;2023-11-21T12:15:12;49.63;47.68;61.14;;
58251;Laerm;51449;51.676;5.812;2023-11-21T12:17:35;49.66;47.73;59.06;;
58251;Laerm;51449;51.676;5.812;2023-11-21T12:20:04;49.63;47.75;55.07;;
58251;Laerm;51449;51.676;5.812;2023-11-21T12:22:28;49.38;47.64;57.02;;
58251;Laerm;51449;51.676;5.812;2023-11-21T12:24:51;49.46;47.68;66.42;;
58251;Laerm;51449;51.676;5.812;2023-11-21T12:27:13;49.41;47.72;56.60;;
58251;Laerm;51449;51.676;5.812;2023-11-21T12:29:36;49.58;47.63;70.94;;
58251;Laerm;51449;51.676;5.812;2023-11-21T12:32:03;49.43;47.59;61.75;;
58251;Laerm;51449;51.676;5.812;2023-11-21T12:34:26;49.40;47.67;56.08;;
58251;Laerm;51449;51.676;5.812;2023-11-21T12:36:50;49.41;47.65;58.04;;
58251;Laerm;51449;51.676;5.812;2023-11-21T12:39:16;49.34;47.63;54.88;;
58251;Laerm;51449;51.676;5.812;2023-11-21T12:41:40;49.37;47.59;54.59;;
58251;Laerm;51449;51.676;5.812;2023-11-21T12:44:11;49.37;47.71;61.56;;
58251;Laerm;51449;51.676;5.812;2023-11-21T12:46:35;49.40;47.45;67.77;;
58251;Laerm;51449;51.676;5.812;2023-11-21T12:48:59;49.32;47.33;65.17;;
58251;Laerm;51449;51.676;5.812;2023-11-21T12:51:23;49.38;47.62;56.74;;
58251;Laerm;51449;51.676;5.812;2023-11-21T12:53:46;49.33;47.70;54.73;;
58251;Laerm;51449;51.676;5.812;2023-11-21T12:56:12;49.33;47.38;56.43;;
58251;Laerm;51449;51.676;5.812;2023-11-21T12:58:39;49.31;47.53;55.21;;
58251;Laerm;51449;51.676;5.812;2023-11-21T13:01:02;49.30;47.49;55.91;;
58251;Laerm;51449;51.676;5.812;2023-11-21T13:03:29;49.31;47.60;53.53;;
58251;Laerm;51449;51.676;5.812;2023-11-21T13:05:57;49.28;47.44;54.24;;
58251;Laerm;51449;51.676;5.812;2023-11-21T13:08:24;49.35;47.52;66.10;;
58251;Laerm;51449;51.676;5.812;2023-11-21T13:10:55;49.32;47.60;60.99;;
58251;Laerm;51449;51.676;5.812;2023-11-21T13:13:21;49.41;47.58;68.90;;
58251;Laerm;51449;51.676;5.812;2023-11-21T13:15:52;49.24;47.22;53.20;;
58251;Laerm;51449;51.676;5.812;2023-11-21T13:18:17;49.32;47.55;67.70;;
58251;Laerm;51449;51.676;5.812;2023-11-21T13:20:41;49.26;47.34;63.68;;
58251;Laerm;51449;51.676;5.812;2023-11-21T13:23:10;49.33;47.47;68.04;;
58251;Laerm;51449;51.676;5.812;2023-11-21T13:25:39;49.30;47.77;60.72;;
58251;Laerm;51449;51.676;5.812;2023-11-21T13:28:14;49.37;47.43;69.14;;
58251;Laerm;51449;51.676;5.812;2023-11-21T13:30:44;49.32;47.43;58.12;;